Time;durP1;ratioP1;P1;durP2;ratioP2;P2;SDS_P1;SDS_P2;PMS_P1;PMS_P2;Temp;Humidity;BMP_temperature;BMP_pressure;BME280_temperature;BME280_humidity;BME280_pressure;Samples;Min_cycle;Max_cycle;Signal;HPM_P1;HPM_P2
2021/09/21 00:01:10;;;;;;;1.15;1.00;;;;;;;14.45;51.39;101658.41;5002344;28;20045;-75
2021/09/21 00:03:36;;;;;;;0.80;0.80;;;;;;;14.47;51.54;101672.75;4981235;28;20030;-75
2021/09/21 00:06:04;;;;;;;1.27;1.10;;;;;;;14.47;51.65;101666.38;4990216;28;20026;-76
2021/09/21 00:08:30;;;;;;;3.20;0.90;;;;;;;14.43;52.05;101668.03;4999204;28;20030;-76
2021/09/21 00:10:57;;;;;;;2.33;1.42;;;;;;;14.37;52.71;101667.16;4985605;28;20034;-75
2021/09/21 00:13:24;;;;;;;5.97;0.90;;;;;;;14.35;52.82;101661.06;4984939;28;20357;-72
2021/09/21 00:15:49;;;;;;;1.27;1.17;;;;;;;14.33;52.59;101660.50;4994983;28;20511;-74
2021/09/21 00:18:15;;;;;;;0.80;0.80;;;;;;;14.34;52.98;101664.91;4974208;28;20058;-74
2021/09/21 00:20:41;;;;;;;3.85;1.10;;;;;;;14.28;53.44;101646.69;4981631;28;20047;-75
2021/09/21 00:23:06;;;;;;;0.95;0.95;;;;;;;14.26;52.81;101652.44;4982326;28;20034;-74
2021/09/21 00:28:51;;;;;;;0.93;0.77;;;;;;;14.21;52.64;101657.09;5001269;28;20058;-76
2021/09/21 00:31:20;;;;;;;0.63;0.63;;;;;;;14.18;53.43;101657.59;4985998;28;20070;-76
2021/09/21 00:34:04;;;;;;;1.77;1.17;;;;;;;14.16;53.72;101662.53;4986245;28;20719;-75
2021/09/21 00:36:30;;;;;;;0.88;0.88;;;;;;;14.10;53.37;101656.97;4985867;28;20072;-74
2021/09/21 00:38:55;;;;;;;0.88;0.88;;;;;;;14.11;53.17;101669.63;4968773;28;20038;-77
2021/09/21 00:41:21;;;;;;;1.00;0.90;;;;;;;14.09;53.16;101668.22;4983777;28;20030;-75
2021/09/21 00:43:47;;;;;;;0.75;0.75;;;;;;;14.04;53.65;101674.53;4985417;28;20034;-77
2021/09/21 00:46:12;;;;;;;0.65;0.65;;;;;;;14.00;53.85;101670.63;4956282;28;20053;-76
2021/09/21 00:48:38;;;;;;;1.33;1.00;;;;;;;13.96;53.84;101669.50;4970407;28;20101;-77
2021/09/21 00:51:03;;;;;;;1.55;1.40;;;;;;;14.03;54.61;101675.63;4987189;28;20037;-75
2021/09/21 00:53:30;;;;;;;2.22;0.90;;;;;;;13.96;54.18;101672.25;4982909;28;20063;-74
2021/09/21 00:55:56;;;;;;;0.90;0.90;;;;;;;13.94;54.34;101668.91;5003314;28;20034;-74
2021/09/21 00:58:22;;;;;;;1.45;0.90;;;;;;;13.89;54.13;101679.88;4969657;28;20062;-74
2021/09/21 01:00:48;;;;;;;0.90;0.90;;;;;;;13.83;54.36;101667.13;5001381;28;20031;-74
2021/09/21 01:03:16;;;;;;;1.52;0.85;;;;;;;13.76;54.65;101672.84;4982389;28;20053;-73
2021/09/21 01:05:42;;;;;;;1.50;1.40;;;;;;;13.65;54.77;101671.06;4983424;28;20027;-74
2021/09/21 01:08:07;;;;;;;3.13;1.17;;;;;;;13.61;55.66;101670.75;4985532;28;20045;-74
2021/09/21 01:10:33;;;;;;;0.60;0.60;;;;;;;13.54;55.34;101670.09;4997095;28;20033;-73
2021/09/21 01:12:59;;;;;;;0.80;0.80;;;;;;;13.53;55.28;101674.75;4995806;28;20376;-74
2021/09/21 01:15:25;;;;;;;0.57;0.57;;;;;;;13.51;55.17;101676.13;4998953;28;20108;-73
2021/09/21 01:17:52;;;;;;;1.67;1.00;;;;;;;13.49;55.74;101672.78;4994706;28;20096;-74
2021/09/21 01:20:19;;;;;;;1.02;1.02;;;;;;;13.46;55.79;101665.03;4984735;28;20043;-75
2021/09/21 01:22:44;;;;;;;1.05;0.95;;;;;;;13.44;55.58;101670.78;5000441;28;20030;-74
2021/09/21 01:25:11;;;;;;;1.15;1.05;;;;;;;13.41;56.09;101672.13;4979094;28;20037;-74
2021/09/21 01:27:37;;;;;;;0.80;0.80;;;;;;;13.39;55.91;101674.31;4976313;28;20480;-74
2021/09/21 01:30:05;;;;;;;0.82;0.82;;;;;;;13.40;55.80;101675.97;4980458;28;20036;-75
2021/09/21 01:32:31;;;;;;;0.90;0.90;;;;;;;13.39;56.22;101674.31;4981939;28;20018;-78
2021/09/21 01:34:57;;;;;;;2.00;1.33;;;;;;;13.42;56.73;101679.28;4994945;28;20072;-77
2021/09/21 01:37:24;;;;;;;4.20;1.10;;;;;;;13.44;56.81;101677.09;4992981;28;20530;-75
2021/09/21 01:39:50;;;;;;;1.10;1.02;;;;;;;13.55;56.53;101682.75;4983205;28;20106;-75
2021/09/21 01:42:15;;;;;;;1.48;0.90;;;;;;;13.65;56.37;101684.78;4986807;28;20392;-76
2021/09/21 01:44:41;;;;;;;0.60;0.50;;;;;;;13.69;56.07;101683.19;4986941;28;20033;-75
2021/09/21 01:47:06;;;;;;;0.70;0.70;;;;;;;13.73;55.79;101679.69;4966420;28;20053;-75
2021/09/21 01:50:19;;;;;;;0.55;0.55;;;;;;;13.76;56.45;101678.34;4979864;28;20108;-77
2021/09/21 01:52:34;;;;;;;0.68;0.50;;;;;;;13.75;56.02;101666.50;5000807;28;20105;-77
2021/09/21 01:55:13;;;;;;;0.88;0.88;;;;;;;13.75;55.73;101666.50;4984165;28;20037;-78
2021/09/21 02:00:33;;;;;;;0.30;0.30;;;;;;;13.72;55.55;101661.50;4993301;28;20098;-79
2021/09/21 02:02:59;;;;;;;0.63;0.50;;;;;;;13.64;55.71;101661.97;4986259;28;20042;-78
2021/09/21 02:05:24;;;;;;;0.30;0.30;;;;;;;13.65;56.17;101669.13;4968594;28;20040;-78
2021/09/21 02:07:50;;;;;;;0.30;0.22;;;;;;;13.67;56.07;101669.72;4984019;28;20046;-76
2021/09/21 02:10:15;;;;;;;0.40;0.40;;;;;;;13.64;56.09;101672.13;5002188;28;20022;-75
2021/09/21 02:12:41;;;;;;;0.55;0.55;;;;;;;13.58;55.73;101665.72;4986123;28;20048;-76
2021/09/21 02:15:07;;;;;;;1.30;0.95;;;;;;;13.54;56.97;101675.59;4961447;28;20044;-77
2021/09/21 02:17:33;;;;;;;0.98;0.98;;;;;;;13.42;56.89;101673.81;4997965;28;20113;-75
2021/09/21 02:19:58;;;;;;;0.70;0.70;;;;;;;13.39;57.16;101685.31;4999629;28;20495;-75
2021/09/21 02:22:24;;;;;;;0.43;0.43;;;;;;;13.32;56.63;101676.38;4953098;28;20106;-73
2021/09/21 02:24:52;;;;;;;0.43;0.40;;;;;;;13.31;56.97;101680.19;4984170;28;20038;-75
2021/09/21 02:27:17;;;;;;;0.50;0.50;;;;;;;13.33;56.71;101686.28;4983185;28;20050;-75
2021/09/21 02:29:43;;;;;;;0.77;0.77;;;;;;;13.34;57.66;101687.97;4981059;28;20044;-75
2021/09/21 02:32:08;;;;;;;0.57;0.57;;;;;;;13.35;56.66;101684.16;4966842;28;20029;-76
2021/09/21 02:34:34;;;;;;;0.35;0.28;;;;;;;13.39;57.33;101685.31;4984083;28;20032;-74
2021/09/21 02:37:00;;;;;;;0.60;0.60;;;;;;;13.39;57.00;101667.97;4962415;28;20038;-74
2021/09/21 02:39:25;;;;;;;0.60;0.60;;;;;;;13.49;56.70;101678.28;4979396;28;20030;-75
2021/09/21 02:41:50;;;;;;;0.50;0.40;;;;;;;13.56;57.30;101678.91;4965198;28;20117;-75
2021/09/21 02:44:16;;;;;;;0.40;0.40;;;;;;;13.56;57.09;101674.22;4998628;28;20038;-76
2021/09/21 02:46:41;;;;;;;0.35;0.30;;;;;;;13.60;56.87;101677.31;4984522;28;20046;-77
2021/09/21 02:49:09;;;;;;;0.88;0.57;;;;;;;13.58;57.07;101671.22;4968324;28;20037;-75
2021/09/21 02:51:35;;;;;;;0.20;0.20;;;;;;;13.54;56.90;101670.09;4982901;28;20030;-80
2021/09/21 02:54:02;;;;;;;1.15;0.52;;;;;;;13.51;57.12;101659.63;4986366;28;20026;-77
2021/09/21 02:56:28;;;;;;;0.57;0.57;;;;;;;13.47;57.02;101662.03;4952719;28;20031;-77
2021/09/21 02:58:54;;;;;;;1.75;0.60;;;;;;;13.44;57.19;101663.38;4949557;28;20035;-77
2021/09/21 03:01:20;;;;;;;0.77;0.77;;;;;;;13.35;56.97;101667.66;4966837;28;20030;-77
2021/09/21 03:03:55;;;;;;;0.73;0.63;;;;;;;13.24;57.35;101671.31;4952130;28;20026;-77
2021/09/21 03:06:28;;;;;;;0.52;0.52;;;;;;;13.14;57.42;101661.03;4979187;28;20471;-77
2021/09/21 03:09:00;;;;;;;0.45;0.40;;;;;;;13.13;57.51;101670.34;4979822;28;20039;-76
2021/09/21 03:11:27;;;;;;;0.80;0.60;;;;;;;13.14;57.81;101671.16;4998727;28;20030;-75
2021/09/21 03:19:02;;;;;;;0.20;0.20;;;;;;;13.03;57.99;101665.53;4986491;28;20069;-75
2021/09/21 03:21:28;;;;;;;0.50;0.50;;;;;;;13.07;58.02;101680.44;4994629;28;20035;-76
2021/09/21 03:23:53;;;;;;;1.00;0.55;;;;;;;13.03;57.94;101682.00;4982918;28;20058;-78
2021/09/21 03:26:20;;;;;;;1.95;0.50;;;;;;;12.98;58.47;101673.72;4966888;28;20436;-78
2021/09/21 03:28:45;;;;;;;0.80;0.80;;;;;;;12.92;58.56;101674.69;4976110;28;20047;-79
2021/09/21 03:31:11;;;;;;;0.40;0.30;;;;;;;12.92;58.50;101681.03;4967590;28;20496;-77
2021/09/21 03:33:36;;;;;;;1.83;0.60;;;;;;;12.92;58.79;101685.69;4970852;28;20037;-79
2021/09/21 03:36:02;;;;;;;0.40;0.40;;;;;;;12.87;58.25;101693.84;4967554;28;20384;-78
2021/09/21 03:38:28;;;;;;;2.88;0.52;;;;;;;12.81;58.59;101694.84;4986808;28;20049;-78
2021/09/21 03:40:55;;;;;;;0.38;0.38;;;;;;;12.72;58.29;101700.75;5004692;28;20081;-78
2021/09/21 03:43:23;;;;;;;1.20;0.25;;;;;;;12.63;58.75;101691.28;4984457;28;20038;-78
2021/09/21 03:46:31;;;;;;;1.83;0.30;;;;;;;12.66;58.35;101701.75;5004839;28;20027;-74
2021/09/21 03:51:46;;;;;;;0.45;0.45;;;;;;;12.50;59.01;101705.28;4192843;23;20058;-75
2021/09/21 03:55:00;;;;;;;;;;;;;;;;;;;;;
2021/09/21 03:57:53;;;;;;;0.30;0.30;;;;;;;12.33;58.58;101700.63;5007390;28;20113;-75
2021/09/21 04:01:00;;;;;;;0.40;0.30;;;;;;;12.24;58.84;101702.13;5001568;28;20061;-74
2021/09/21 04:06:47;;;;;;;0.57;0.30;;;;;;;12.02;59.23;101699.22;4993693;28;20030;-75
2021/09/21 04:09:12;;;;;;;0.30;0.30;;;;;;;12.02;59.56;101711.03;4999165;28;20038;-75
2021/09/21 04:13:00;;;;;;;0.30;0.30;;;;;;;11.95;59.26;101709.50;4994826;28;20029;-75
2021/09/21 04:15:25;;;;;;;0.30;0.20;;;;;;;11.93;59.36;101712.50;4925565;28;20039;-75
2021/09/21 04:17:53;;;;;;;0.10;0.10;;;;;;;11.96;59.19;101714.75;5017266;28;20117;-72
2021/09/21 04:20:19;;;;;;;0.22;0.20;;;;;;;12.02;59.29;101732.94;5019286;28;20088;-73
2021/09/21 04:22:44;;;;;;;0.25;0.20;;;;;;;11.99;59.50;101725.22;4982820;28;20030;-74
2021/09/21 04:25:12;;;;;;;0.20;0.10;;;;;;;12.08;59.42;101735.81;5001404;28;20046;-73
2021/09/21 04:27:38;;;;;;;0.15;0.10;;;;;;;12.08;59.61;101730.34;5002593;28;20083;-74
2021/09/21 04:30:05;;;;;;;0.20;0.20;;;;;;;12.08;58.83;101730.34;5001053;28;20040;-72
2021/09/21 04:32:58;;;;;;;0.20;0.20;;;;;;;12.10;59.65;101722.69;5007640;28;20033;-74
2021/09/21 04:35:24;;;;;;;0.10;0.10;;;;;;;12.08;59.33;101719.34;5011221;28;20038;-73
2021/09/21 04:37:59;;;;;;;0.10;0.10;;;;;;;12.07;59.07;101712.19;5022674;28;20111;-75
2021/09/21 04:40:28;;;;;;;0.30;0.30;;;;;;;12.09;59.89;101715.53;5021411;28;20086;-75
2021/09/21 04:42:54;;;;;;;0.80;0.40;;;;;;;12.14;59.91;101729.34;4968931;28;20048;-74
2021/09/21 04:45:20;;;;;;;0.20;0.20;;;;;;;12.12;59.64;101726.00;5023689;28;20065;-76
2021/09/21 04:47:45;;;;;;;0.30;0.30;;;;;;;12.12;59.64;101726.84;5011552;28;20029;-76
2021/09/21 04:50:11;;;;;;;0.40;0.40;;;;;;;12.10;59.79;101733.66;5010032;28;20073;-77
2021/09/21 04:52:37;;;;;;;0.25;0.25;;;;;;;12.02;59.79;101729.38;5018316;28;20643;-75
2021/09/21 04:55:04;;;;;;;0.50;0.50;;;;;;;12.00;60.53;101729.63;4989015;28;20085;-76
2021/09/21 04:57:31;;;;;;;1.13;0.73;;;;;;;12.02;60.33;101741.19;5003952;28;20400;-76
2021/09/21 04:59:56;;;;;;;0.60;0.60;;;;;;;11.95;60.69;101726.78;5006949;28;20069;-76
2021/09/21 05:02:22;;;;;;;0.80;0.80;;;;;;;11.92;60.46;101732.72;4991671;28;20030;-75
2021/09/21 05:04:47;;;;;;;0.90;0.70;;;;;;;11.97;60.44;101735.63;5019034;28;20030;-74
2021/09/21 05:07:13;;;;;;;0.50;0.50;;;;;;;11.94;61.06;101735.25;5006569;28;20025;-74
2021/09/21 05:09:38;;;;;;;0.60;0.60;;;;;;;11.89;60.99;101733.22;5007491;28;20022;-75
2021/09/21 05:12:05;;;;;;;0.60;0.60;;;;;;;11.91;61.32;101746.66;5004147;28;20021;-74
2021/09/21 05:14:30;;;;;;;0.50;0.50;;;;;;;11.92;61.23;101749.16;5011968;28;20030;-75
2021/09/21 05:16:58;;;;;;;0.52;0.52;;;;;;;11.90;61.29;101748.59;4998961;28;20036;-75
2021/09/21 05:19:23;;;;;;;0.80;0.80;;;;;;;11.88;61.29;101751.56;5003018;28;20026;-74
2021/09/21 05:21:49;;;;;;;0.50;0.50;;;;;;;11.85;61.41;101753.94;4968812;28;20033;-74
2021/09/21 05:24:14;;;;;;;0.40;0.40;;;;;;;11.82;61.49;101762.66;4982170;28;20062;-74
2021/09/21 05:26:52;;;;;;;0.75;0.75;;;;;;;11.82;61.47;101766.22;5022197;28;20038;-73
2021/09/21 05:32:01;;;;;;;1.67;1.58;;;;;;;11.79;61.95;101777.66;4998170;28;20054;-74
2021/09/21 05:34:27;;;;;;;0.95;0.95;;;;;;;11.78;62.49;101783.41;5002701;28;20042;-74
2021/09/21 05:36:52;;;;;;;1.20;1.10;;;;;;;11.75;62.82;101786.63;5003516;28;20026;-73
2021/09/21 05:39:18;;;;;;;2.20;0.73;;;;;;;11.69;62.61;101778.28;4967492;28;20042;-73
2021/09/21 05:41:43;;;;;;;1.05;1.05;;;;;;;11.67;63.00;101783.19;4985067;28;20467;-72
2021/09/21 05:44:10;;;;;;;0.95;0.95;;;;;;;11.65;63.01;101789.97;4994876;28;20035;-72
2021/09/21 05:46:35;;;;;;;1.05;0.95;;;;;;;11.65;63.33;101792.69;4996536;28;20023;-74
2021/09/21 05:49:01;;;;;;;0.88;0.88;;;;;;;11.61;63.42;101784.13;4998183;28;20089;-74
2021/09/21 05:51:28;;;;;;;2.30;1.00;;;;;;;11.60;63.41;101782.47;4980095;28;20031;-76
2021/09/21 05:53:53;;;;;;;1.23;1.05;;;;;;;11.60;63.60;101785.19;4999384;28;20026;-74
2021/09/21 05:56:20;;;;;;;1.08;0.85;;;;;;;11.60;63.40;101787.94;5001647;28;20069;-75
2021/09/21 05:58:45;;;;;;;0.85;0.85;;;;;;;11.59;63.60;101783.53;4997990;28;20030;-75
2021/09/21 06:01:11;;;;;;;0.88;0.70;;;;;;;11.61;63.79;101791.50;5000616;28;20126;-74
2021/09/21 06:03:36;;;;;;;1.45;0.50;;;;;;;11.62;63.29;101791.28;4995357;28;20073;-72
2021/09/21 06:06:02;;;;;;;0.70;0.70;;;;;;;11.64;63.54;101797.34;4999781;28;20088;-72
2021/09/21 06:08:28;;;;;;;0.30;0.30;;;;;;;11.67;63.24;101802.34;4996434;28;20349;-73
2021/09/21 06:10:53;;;;;;;0.55;0.55;;;;;;;11.73;62.98;101794.25;4979805;28;20046;-76
2021/09/21 06:13:19;;;;;;;0.30;0.30;;;;;;;11.78;63.55;101800.66;4993051;28;20041;-75
2021/09/21 06:15:46;;;;;;;0.30;0.30;;;;;;;11.81;62.99;101797.47;4970626;28;20046;-76
2021/09/21 06:18:12;;;;;;;0.30;0.30;;;;;;;11.85;62.97;101800.53;4998720;28;20102;-73
2021/09/21 06:20:39;;;;;;;0.75;0.30;;;;;;;11.90;62.86;101803.41;4977302;28;20038;-75
2021/09/21 06:23:05;;;;;;;0.20;0.20;;;;;;;11.93;62.74;101800.22;4990195;28;20034;-74
2021/09/21 06:25:31;;;;;;;0.17;0.17;;;;;;;11.92;62.72;101793.03;4997393;28;20030;-75
2021/09/21 06:27:56;;;;;;;0.10;0.10;;;;;;;11.99;62.74;101801.97;4993809;28;20045;-72
2021/09/21 06:30:22;;;;;;;0.20;0.20;;;;;;;12.07;62.47;101805.44;4989548;28;20110;-74
2021/09/21 06:32:47;;;;;;;0.10;0.10;;;;;;;12.09;62.59;101803.25;4994637;28;20041;-74
2021/09/21 06:35:13;;;;;;;0.30;0.30;;;;;;;12.08;62.56;101807.09;4964745;28;20066;-74
2021/09/21 06:37:39;;;;;;;0.40;0.40;;;;;;;12.10;62.19;101808.50;4981869;28;20053;-75
2021/09/21 06:40:06;;;;;;;0.20;0.20;;;;;;;12.09;62.51;101803.25;4996643;28;20052;-74
2021/09/21 06:42:33;;;;;;;0.45;0.30;;;;;;;12.13;62.48;101809.94;4964985;28;20038;-73
2021/09/21 06:45:02;;;;;;;0.20;0.20;;;;;;;12.15;62.32;101813.25;5002268;28;20065;-74
2021/09/21 06:47:40;;;;;;;0.20;0.20;;;;;;;12.15;62.41;101807.75;4994758;28;20428;-74
2021/09/21 06:50:06;;;;;;;0.90;0.30;;;;;;;12.27;62.67;101816.00;4992027;28;23741;-75
2021/09/21 06:52:31;;;;;;;1.23;0.43;;;;;;;12.39;62.45;101823.06;4995731;28;20061;-74
2021/09/21 06:54:57;;;;;;;0.30;0.30;;;;;;;12.50;62.11;101835.09;4974598;28;20034;-73
2021/09/21 06:57:47;;;;;;;0.30;0.30;;;;;;;12.63;61.66;101822.16;4977379;28;20027;-76
2021/09/21 07:00:13;;;;;;;1.40;0.10;;;;;;;12.71;61.58;101828.06;4995397;28;20050;-70
2021/09/21 07:02:39;;;;;;;0.25;0.25;;;;;;;12.88;61.63;101830.03;4981620;28;20034;-69
2021/09/21 07:05:05;;;;;;;0.20;0.20;;;;;;;13.04;61.16;101842.94;4989606;28;20031;-74
2021/09/21 07:07:33;;;;;;;0.10;0.10;;;;;;;13.17;61.11;101843.69;4991665;28;20031;-72
2021/09/21 07:09:59;;;;;;;0.20;0.20;;;;;;;13.31;60.92;101841.47;4963402;28;20038;-74
2021/09/21 07:12:24;;;;;;;0.30;0.20;;;;;;;13.36;61.13;101839.66;4997181;28;20086;-73
2021/09/21 07:14:50;;;;;;;0.20;0.20;;;;;;;13.55;60.38;101847.63;4993871;28;20683;-74
2021/09/21 07:17:16;;;;;;;0.20;0.20;;;;;;;13.66;60.69;101843.13;4982021;28;20027;-72
2021/09/21 07:19:41;;;;;;;0.47;0.20;;;;;;;13.78;60.95;101846.59;4964623;28;20036;-73
2021/09/21 07:22:07;;;;;;;1.48;1.27;;;;;;;13.82;61.31;101842.25;4994921;28;20038;-72
2021/09/21 07:24:32;;;;;;;4.80;1.23;;;;;;;13.85;61.62;101840.94;4999632;28;20033;-73
2021/09/21 07:26:58;;;;;;;1.45;1.38;;;;;;;13.90;61.71;101838.25;4980129;28;20057;-74
2021/09/21 07:29:23;;;;;;;2.03;1.80;;;;;;;13.93;62.70;101841.31;4991930;28;20031;-73
2021/09/21 07:31:49;;;;;;;1.80;1.70;;;;;;;13.99;62.28;101842.25;4980437;28;20105;-71
2021/09/21 07:34:14;;;;;;;1.70;1.60;;;;;;;14.05;62.81;101843.97;4994827;28;20023;-71
2021/09/21 07:36:52;;;;;;;3.35;2.00;;;;;;;14.16;63.06;101844.09;4975630;28;20037;-72
2021/09/21 07:39:19;;;;;;;4.53;2.60;;;;;;;14.32;62.71;101846.78;4993469;28;20098;-72
2021/09/21 07:41:52;;;;;;;2.53;2.35;;;;;;;14.58;62.84;101843.50;4998359;28;20029;-72
2021/09/21 07:44:18;;;;;;;1.75;1.65;;;;;;;14.63;62.40;101830.66;4992322;28;20081;-72
2021/09/21 07:46:43;;;;;;;4.07;1.88;;;;;;;14.80;62.20;101827.78;4995059;28;20030;-72
2021/09/21 07:49:12;;;;;;;1.67;1.58;;;;;;;14.99;61.86;101832.91;4999520;28;20034;-73
2021/09/21 07:51:40;;;;;;;4.90;1.60;;;;;;;15.23;61.66;101841.69;5001270;28;20018;-73
2021/09/21 07:54:08;;;;;;;1.75;1.65;;;;;;;15.45;60.86;101836.06;4997125;28;20023;-72
2021/09/21 07:56:34;;;;;;;1.38;1.08;;;;;;;15.98;60.45;101844.41;4998374;28;20030;-73
2021/09/21 07:59:01;;;;;;;0.55;0.55;;;;;;;16.60;60.37;101847.41;4984116;28;20053;-73
2021/09/21 08:01:29;;;;;;;1.10;1.00;;;;;;;17.21;59.23;101854.97;4991319;28;21140;-72
2021/09/21 08:03:56;;;;;;;0.90;0.90;;;;;;;17.84;58.89;101861.28;4986052;28;20121;-72
2021/09/21 08:06:27;;;;;;;0.50;0.50;;;;;;;18.38;58.28;101856.97;4998461;28;20376;-72
2021/09/21 08:08:53;;;;;;;0.40;0.40;;;;;;;19.01;57.54;101862.72;4984472;28;20047;-72
2021/09/21 08:11:18;;;;;;;0.40;0.30;;;;;;;19.58;56.24;101870.59;5004603;28;20037;-71
2021/09/21 08:14:03;;;;;;;0.43;0.43;;;;;;;20.27;55.82;101875.97;5007523;28;20189;-71
2021/09/21 08:16:40;;;;;;;;;;;;;;;;;;;;;
2021/09/21 08:19:06;;;;;;;0.45;0.45;;;;;;;21.13;53.30;101872.28;5005295;28;20065;-71
2021/09/21 08:21:38;;;;;;;0.77;0.30;;;;;;;21.67;52.92;101892.28;4999313;28;20046;-73
2021/09/21 08:24:19;;;;;;;0.17;0.17;;;;;;;22.20;52.20;101884.59;4985713;28;20026;-72
2021/09/21 08:26:49;;;;;;;0.17;0.10;;;;;;;22.79;51.64;101896.72;4998487;28;20027;-72
2021/09/21 08:29:17;;;;;;;0.20;0.20;;;;;;;23.31;50.46;101868.44;4998703;28;20117;-71
2021/09/21 08:31:45;;;;;;;0.50;0.50;;;;;;;23.93;49.46;101885.56;4997224;28;20185;-72
2021/09/21 08:34:15;;;;;;;0.15;0.15;;;;;;;24.52;48.99;101900.06;4979921;28;20050;-73
2021/09/21 08:36:46;;;;;;;0.15;0.15;;;;;;;25.07;48.43;101897.81;5000629;28;20491;-72
2021/09/21 08:39:12;;;;;;;0.50;0.40;;;;;;;25.54;46.53;101906.38;4980441;28;20030;-72
2021/09/21 08:41:39;;;;;;;0.30;0.30;;;;;;;26.03;46.67;101910.88;4981800;28;20427;-72
2021/09/21 08:44:14;;;;;;;0.00;0.00;;;;;;;26.58;45.97;101912.72;4998060;28;20034;-72
2021/09/21 08:46:44;;;;;;;0.13;0.13;;;;;;;27.29;44.59;101916.66;4997934;28;20038;-72
2021/09/21 08:49:27;;;;;;;0.25;0.25;;;;;;;28.01;43.17;101921.22;4983647;28;20062;-74
2021/09/21 08:51:52;;;;;;;0.35;0.30;;;;;;;28.48;40.75;101932.00;4998632;28;20057;-73
2021/09/21 08:54:26;;;;;;;0.32;0.32;;;;;;;28.93;39.88;101935.84;4998910;28;20022;-73
2021/09/21 08:56:54;;;;;;;0.50;0.40;;;;;;;29.36;38.78;101925.84;4991412;28;20456;-72
2021/09/21 08:59:38;;;;;;;;;;;;;;;;;;;;;
2021/09/21 09:02:12;;;;;;;0.30;0.10;;;;;;;30.49;37.82;101949.34;4993451;28;20105;-72
2021/09/21 09:04:41;;;;;;;0.17;0.17;;;;;;;30.99;37.39;101939.19;4990905;28;20034;-73
2021/09/21 09:07:07;;;;;;;0.43;0.20;;;;;;;31.54;36.78;101932.66;4991354;28;20038;-72
2021/09/21 09:09:35;;;;;;;0.10;0.10;;;;;;;32.08;35.80;101942.13;4994692;28;20041;-72
2021/09/21 09:12:10;;;;;;;0.30;0.10;;;;;;;32.51;34.39;101935.16;4997033;28;20082;-73
2021/09/21 09:14:43;;;;;;;0.35;0.20;;;;;;;32.98;33.55;101935.84;5003157;28;20488;-74
2021/09/21 09:17:12;;;;;;;0.20;0.15;;;;;;;33.35;32.72;101937.13;4999416;28;20057;-72
2021/09/21 09:19:44;;;;;;;0.13;0.10;;;;;;;33.61;31.49;101933.34;4996204;28;20046;-72
2021/09/21 09:22:23;;;;;;;0.10;0.10;;;;;;;33.97;31.52;101938.59;4993794;28;20051;-72
2021/09/21 09:25:18;;;;;;;0.30;0.10;;;;;;;34.53;30.34;101943.09;5000572;28;20022;-72
2021/09/21 09:27:49;;;;;;;0.30;0.10;;;;;;;34.74;29.87;101935.91;4967111;28;20389;-74
2021/09/21 09:30:20;;;;;;;0.20;0.20;;;;;;;35.14;29.40;101942.63;4966119;28;20050;-73
2021/09/21 09:32:48;;;;;;;0.45;0.13;;;;;;;35.45;28.07;101928.94;4993111;28;20043;-73
2021/09/21 09:35:26;;;;;;;0.30;0.10;;;;;;;35.87;27.37;101953.00;5001614;28;20106;-73
2021/09/21 09:37:52;;;;;;;0.00;0.00;;;;;;;35.98;26.75;101947.31;4994148;28;20026;-73
2021/09/21 09:40:18;;;;;;;0.35;0.17;;;;;;;36.40;25.86;101947.72;5001390;28;20057;-73
2021/09/21 09:42:47;;;;;;;0.10;0.10;;;;;;;36.79;26.40;101935.44;4996630;28;20030;-73
2021/09/21 09:45:15;;;;;;;0.30;0.10;;;;;;;37.26;25.04;101930.38;4996675;28;20031;-73
2021/09/21 09:47:52;;;;;;;0.50;0.20;;;;;;;37.26;22.33;101935.28;4996227;28;20041;-73
2021/09/21 09:50:18;;;;;;;0.17;0.10;;;;;;;37.40;23.40;101940.91;4998646;28;20026;-72
2021/09/21 09:52:47;;;;;;;0.30;0.10;;;;;;;37.80;23.55;101934.94;5000526;28;20041;-71
2021/09/21 09:55:12;;;;;;;0.20;0.10;;;;;;;38.22;23.17;101948.06;4997974;28;20026;-73
2021/09/21 09:57:41;;;;;;;0.10;0.10;;;;;;;38.44;22.28;101938.47;4998400;28;20034;-72
2021/09/21 10:00:07;;;;;;;0.00;0.00;;;;;;;38.86;22.07;101953.50;4994699;28;20034;-73
2021/09/21 10:02:34;;;;;;;0.20;0.10;;;;;;;39.01;21.20;101954.97;5001029;28;20033;-75
2021/09/21 10:05:02;;;;;;;0.45;0.10;;;;;;;39.43;20.49;101955.66;4995310;28;20567;-72
2021/09/21 10:07:30;;;;;;;0.10;0.10;;;;;;;39.70;20.75;101954.06;4980664;28;20030;-74
2021/09/21 10:10:00;;;;;;;0.00;0.00;;;;;;;40.17;20.73;101953.31;4963647;28;20173;-73
2021/09/21 10:12:28;;;;;;;0.30;0.10;;;;;;;40.72;20.17;101965.41;4992635;28;20027;-72
2021/09/21 10:15:02;;;;;;;0.10;0.10;;;;;;;41.31;20.16;101946.53;4981079;28;20045;-73
2021/09/21 10:17:31;;;;;;;0.20;0.00;;;;;;;41.92;19.64;101953.72;4996997;28;20591;-71
2021/09/21 10:19:56;;;;;;;0.10;0.10;;;;;;;42.25;19.20;101950.84;4984618;28;20142;-72
2021/09/21 10:22:42;;;;;;;0.15;0.10;;;;;;;42.61;18.79;101949.06;4974869;28;20027;-73
2021/09/21 10:25:09;;;;;;;0.10;0.05;;;;;;;42.67;18.63;101955.88;4978691;28;20497;-70
2021/09/21 10:27:51;;;;;;;0.00;0.00;;;;;;;43.17;17.86;101953.63;4983169;28;20030;-77
2021/09/21 10:33:21;;;;;;;0.10;0.10;;;;;;;43.09;16.92;101930.00;4992625;28;20185;-76
2021/09/21 10:35:49;;;;;;;0.30;0.17;;;;;;;43.22;17.21;101938.66;4996753;28;20034;-77
2021/09/21 10:38:19;;;;;;;0.10;0.10;;;;;;;43.44;16.51;101944.53;4970968;28;20022;-73
2021/09/21 10:40:55;;;;;;;0.10;0.10;;;;;;;43.58;16.34;101941.19;4995383;28;20030;-72
2021/09/21 10:43:27;;;;;;;0.30;0.20;;;;;;;43.71;16.24;101946.16;4993625;28;20085;-73
2021/09/21 10:46:14;;;;;;;0.17;0.10;;;;;;;44.07;15.82;101934.22;4980827;28;20024;-73
2021/09/21 10:48:43;;;;;;;0.10;0.10;;;;;;;44.30;15.95;101940.06;4992319;28;20053;-72
2021/09/21 10:51:10;;;;;;;0.00;0.00;;;;;;;44.65;15.81;101937.94;4994956;28;20030;-72
2021/09/21 10:53:41;;;;;;;0.25;0.10;;;;;;;45.03;15.67;101933.22;4987435;28;20046;-72
2021/09/21 10:56:11;;;;;;;0.20;0.03;;;;;;;45.42;15.23;101928.75;4989346;28;20481;-73
2021/09/21 10:58:53;;;;;;;0.10;0.10;;;;;;;45.95;15.26;101927.81;4988461;28;20019;-73
2021/09/21 11:01:27;;;;;;;0.00;0.00;;;;;;;46.40;15.17;101928.31;4996469;28;20032;-72
2021/09/21 11:04:00;;;;;;;0.10;0.00;;;;;;;46.91;14.84;101934.66;4992951;28;20030;-73
2021/09/21 11:06:28;;;;;;;0.20;0.20;;;;;;;47.14;13.84;101933.16;4989383;28;20042;-70
2021/09/21 11:08:55;;;;;;;0.20;0.10;;;;;;;47.11;13.08;101934.97;4976329;28;20022;-71
2021/09/21 11:11:21;;;;;;;0.10;0.10;;;;;;;47.35;13.55;101932.16;4976135;28;20042;-70
2021/09/21 11:13:48;;;;;;;0.00;0.00;;;;;;;47.75;13.40;101923.59;4969646;28;20417;-71
2021/09/21 11:16:13;;;;;;;0.20;0.10;;;;;;;48.01;13.24;101930.47;4993988;28;20030;-70
2021/09/21 11:18:43;;;;;;;0.17;0.10;;;;;;;48.23;12.83;101929.34;4994795;28;20503;-72
2021/09/21 11:21:10;;;;;;;0.10;0.10;;;;;;;48.29;12.55;101927.34;4975186;28;20026;-72
2021/09/21 11:23:41;;;;;;;0.10;0.00;;;;;;;48.41;12.02;101926.28;4991901;28;20018;-73
2021/09/21 11:26:11;;;;;;;0.10;0.10;;;;;;;48.45;12.44;101922.38;4995601;28;20050;-72
2021/09/21 11:28:43;;;;;;;0.08;0.00;;;;;;;48.72;12.10;101918.44;4978980;28;20058;-71
2021/09/21 11:31:09;;;;;;;0.28;0.10;;;;;;;49.21;12.17;101913.19;4990383;28;20077;-71
2021/09/21 11:33:37;;;;;;;0.20;0.10;;;;;;;49.73;11.40;101915.53;4981148;28;20031;-72
2021/09/21 11:36:09;;;;;;;0.00;0.00;;;;;;;50.11;11.36;101902.81;4979847;28;20485;-71
2021/09/21 11:38:39;;;;;;;2.33;0.20;;;;;;;50.38;11.11;101903.63;4981841;28;20030;-72
2021/09/21 11:41:06;;;;;;;0.57;0.25;;;;;;;49.80;9.13;101909.28;4981754;28;20015;-71
2021/09/21 11:43:32;;;;;;;0.30;0.15;;;;;;;47.66;9.80;101902.03;4980206;28;20023;-71
2021/09/21 11:45:58;;;;;;;0.20;0.10;;;;;;;45.52;10.90;101899.94;4994549;28;20035;-71
2021/09/21 11:48:27;;;;;;;0.10;0.10;;;;;;;43.50;11.46;101888.00;4981033;28;20034;-71
2021/09/21 11:50:53;;;;;;;0.20;0.10;;;;;;;43.21;13.09;101891.81;4978685;28;20034;-70
2021/09/21 11:53:27;;;;;;;0.10;0.10;;;;;;;44.35;12.86;101891.25;4960259;28;20098;-72
2021/09/21 11:55:56;;;;;;;0.00;0.00;;;;;;;45.63;12.80;101888.72;4993876;28;20580;-71
2021/09/21 11:58:29;;;;;;;0.22;0.10;;;;;;;46.96;11.60;101888.50;4975377;28;20528;-71
2021/09/21 12:00:57;;;;;;;1.15;0.20;;;;;;;47.46;10.78;101882.38;4977934;28;20032;-72